createdAt,value
2023-02-13T00:01:07.537Z,14.30
2023-02-13T00:03:35.306Z,14.77
2023-02-13T00:06:03.000Z,14.40
2023-02-13T00:08:31.238Z,14.93
2023-02-13T00:10:59.539Z,15.53
2023-02-13T00:13:28.979Z,15.00
2023-02-13T00:15:57.746Z,14.63
2023-02-13T00:18:25.535Z,14.90
2023-02-13T00:21:01.124Z,14.87
2023-02-13T00:23:30.986Z,14.73
2023-02-13T00:25:58.931Z,14.43
2023-02-13T00:28:28.678Z,13.83
2023-02-13T00:31:03.131Z,13.53
2023-02-13T00:33:31.105Z,13.83
2023-02-13T00:36:04.628Z,13.93
2023-02-13T00:38:32.523Z,13.17
2023-02-13T00:41:00.208Z,12.43
2023-02-13T00:43:29.332Z,12.37
2023-02-13T00:45:58.555Z,12.80
2023-02-13T00:48:26.587Z,12.83
2023-02-13T00:50:54.250Z,12.53
2023-02-13T00:53:22.655Z,12.70
2023-02-13T00:55:50.814Z,12.57
2023-02-13T00:58:19.337Z,13.13
2023-02-13T01:00:48.907Z,13.63
2023-02-13T01:03:17.824Z,12.60
2023-02-13T01:05:46.173Z,12.57
2023-02-13T01:08:14.957Z,13.93
2023-02-13T01:10:43.569Z,13.37
2023-02-13T01:13:11.863Z,13.27
2023-02-13T01:15:41.028Z,14.30
2023-02-13T01:18:11.050Z,14.17
2023-02-13T01:20:38.711Z,13.10
2023-02-13T01:23:06.421Z,14.03
2023-02-13T01:25:34.088Z,13.70
2023-02-13T01:28:01.745Z,13.60
2023-02-13T01:30:29.515Z,13.07
2023-02-13T01:32:57.228Z,13.43
2023-02-13T01:35:26.253Z,12.80
2023-02-13T01:37:53.911Z,12.83
2023-02-13T01:40:21.845Z,12.83
2023-02-13T01:42:49.520Z,12.67
2023-02-13T01:45:25.222Z,12.97
2023-02-13T01:47:57.328Z,12.40
2023-02-13T01:50:33.560Z,12.03
2023-02-13T01:53:11.423Z,12.27
2023-02-13T01:55:45.438Z,11.80
2023-02-13T01:58:18.465Z,11.63
2023-02-13T02:00:49.726Z,11.93
2023-02-13T02:03:24.108Z,11.60
2023-02-13T02:05:56.130Z,11.03
2023-02-13T02:08:24.749Z,12.03
2023-02-13T02:10:52.789Z,10.93
2023-02-13T02:13:22.392Z,11.87
2023-02-13T02:15:51.039Z,11.03
2023-02-13T02:18:20.500Z,10.93
2023-02-13T02:21:25.197Z,11.80
2023-02-13T02:24:24.030Z,11.20
2023-02-13T02:27:15.657Z,11.60
2023-02-13T02:30:18.965Z,11.60
2023-02-13T02:33:09.858Z,11.60
2023-02-13T02:35:47.471Z,10.57
2023-02-13T02:38:32.626Z,10.53
2023-02-13T02:41:09.483Z,11.20
2023-02-13T02:43:53.519Z,11.37
2023-02-13T02:46:31.197Z,10.50
2023-02-13T02:49:24.824Z,12.13
2023-02-13T02:52:04.565Z,10.80
2023-02-13T02:54:54.465Z,11.20
2023-02-13T02:57:26.700Z,11.50
2023-02-13T03:00:27.042Z,10.03
2023-02-13T03:03:12.717Z,11.00
2023-02-13T03:06:02.533Z,11.07
2023-02-13T03:08:44.529Z,11.40
2023-02-13T03:11:44.159Z,11.73
2023-02-13T03:14:15.328Z,11.77
2023-02-13T03:17:01.174Z,11.57
2023-02-13T03:19:55.690Z,11.87
2023-02-13T03:22:35.042Z,10.80
2023-02-13T03:25:11.851Z,11.40
2023-02-13T03:28:04.942Z,12.23
2023-02-13T03:30:41.719Z,11.50
2023-02-13T03:33:24.456Z,11.80
2023-02-13T03:36:21.401Z,11.23
2023-02-13T03:38:59.220Z,11.87
2023-02-13T03:41:31.955Z,11.40
2023-02-13T03:44:08.635Z,11.37
2023-02-13T03:46:41.873Z,11.87
2023-02-13T03:49:32.206Z,11.10
2023-02-13T03:52:04.474Z,11.90
2023-02-13T03:54:57.383Z,11.80
2023-02-13T03:57:43.860Z,10.93
2023-02-13T04:00:14.919Z,12.07
2023-02-13T04:02:53.123Z,11.70
2023-02-13T04:05:25.056Z,11.27
2023-02-13T04:07:52.834Z,12.20
2023-02-13T04:10:24.733Z,11.97
2023-02-13T04:12:58.431Z,12.43
2023-02-13T04:15:31.532Z,11.60
2023-02-13T04:18:06.497Z,12.20
2023-02-13T04:20:34.393Z,12.10
2023-02-13T04:23:06.622Z,12.90
2023-02-13T04:25:36.774Z,12.43
2023-02-13T04:28:05.025Z,12.53
2023-02-13T04:30:32.945Z,12.13
2023-02-13T04:33:00.609Z,13.33
2023-02-13T04:35:28.393Z,13.47
2023-02-13T04:37:56.152Z,13.10
2023-02-13T04:40:23.979Z,13.37
2023-02-13T04:42:53.063Z,12.40
2023-02-13T04:45:20.825Z,13.47
2023-02-13T04:47:52.070Z,12.90
2023-02-13T04:50:19.874Z,14.30
2023-02-13T04:52:48.218Z,12.47
2023-02-13T04:55:16.019Z,12.50
2023-02-13T04:57:43.623Z,14.93
2023-02-13T05:00:14.051Z,13.43
2023-02-13T05:02:41.718Z,14.53
2023-02-13T05:05:09.567Z,13.53
2023-02-13T05:07:37.227Z,14.20
2023-02-13T05:10:06.036Z,13.27
2023-02-13T05:12:33.629Z,13.87
2023-02-13T05:15:01.426Z,12.93
2023-02-13T05:17:30.421Z,13.90
2023-02-13T05:19:59.078Z,14.00
2023-02-13T05:22:44.281Z,13.67
2023-02-13T05:25:11.929Z,14.10
2023-02-13T05:27:39.525Z,13.80
2023-02-13T05:30:07.530Z,14.13
2023-02-13T05:32:36.774Z,14.20
2023-02-13T05:35:04.979Z,14.07
2023-02-13T05:37:32.886Z,14.07
2023-02-13T05:40:00.546Z,14.17
2023-02-13T05:42:28.167Z,14.57
2023-02-13T05:44:55.844Z,14.63
2023-02-13T05:47:23.458Z,15.10
2023-02-13T05:49:52.457Z,13.47
2023-02-13T05:52:20.162Z,12.33
2023-02-13T05:54:47.838Z,14.80
2023-02-13T05:57:15.540Z,14.10
2023-02-13T05:59:43.228Z,14.17
2023-02-13T06:02:10.868Z,12.77
2023-02-13T06:04:38.487Z,13.73
2023-02-13T06:07:07.570Z,13.83
2023-02-13T06:09:35.199Z,14.03
2023-02-13T06:12:02.832Z,14.40
2023-02-13T06:14:30.488Z,15.03
2023-02-13T06:16:58.120Z,14.60
2023-02-13T06:19:25.728Z,13.90
2023-02-13T06:21:53.426Z,14.07
2023-02-13T06:24:22.459Z,15.67
2023-02-13T06:26:50.152Z,14.47
2023-02-13T06:29:18.103Z,14.03
2023-02-13T06:31:45.852Z,14.77
2023-02-13T06:34:13.633Z,15.27
2023-02-13T06:36:42.632Z,15.63
2023-02-13T06:39:11.060Z,15.47
2023-02-13T06:41:40.050Z,16.17
2023-02-13T06:44:08.326Z,16.33
2023-02-13T06:46:36.172Z,16.50
2023-02-13T06:49:03.921Z,15.67
2023-02-13T06:51:31.625Z,15.30
2023-02-13T06:53:59.308Z,15.60
2023-02-13T06:56:27.336Z,17.23
2023-02-13T06:58:56.379Z,17.67
2023-02-13T07:01:24.119Z,16.17
2023-02-13T07:03:51.846Z,17.67
2023-02-13T07:06:19.836Z,15.73
2023-02-13T07:08:47.595Z,17.43
2023-02-13T07:11:19.508Z,17.57
2023-02-13T07:13:47.131Z,17.23
2023-02-13T07:16:16.416Z,17.57
2023-02-13T07:18:44.092Z,16.77
2023-02-13T07:21:11.938Z,18.40
2023-02-13T07:23:39.645Z,19.30
2023-02-13T07:26:08.132Z,18.10
2023-02-13T07:28:35.808Z,18.07
2023-02-13T07:31:05.690Z,18.00
2023-02-13T07:33:35.080Z,19.20
2023-02-13T07:36:03.611Z,18.90
2023-02-13T07:38:31.863Z,18.73
2023-02-13T07:41:00.101Z,18.77
2023-02-13T07:43:29.871Z,17.90
2023-02-13T07:45:59.932Z,16.63
2023-02-13T07:48:28.118Z,19.20
2023-02-13T07:51:01.641Z,19.67
2023-02-13T07:53:29.432Z,18.50
2023-02-13T07:55:57.381Z,19.27
2023-02-13T07:58:25.223Z,19.27
2023-02-13T08:00:52.866Z,18.13
2023-02-13T08:03:20.520Z,19.80
2023-02-13T08:05:49.498Z,18.40
2023-02-13T08:08:18.564Z,20.50
2023-02-13T08:11:03.733Z,19.73
2023-02-13T08:13:31.420Z,18.83
2023-02-13T08:15:59.334Z,20.33
2023-02-13T08:18:27.123Z,20.80
2023-02-13T08:20:54.856Z,18.87
2023-02-13T08:23:23.883Z,19.13
2023-02-13T08:25:51.541Z,17.67
2023-02-13T08:28:19.269Z,18.17
2023-02-13T08:30:46.923Z,19.47
2023-02-13T08:33:14.541Z,19.17
2023-02-13T08:35:42.193Z,18.30
2023-02-13T08:38:10.866Z,18.43
2023-02-13T08:40:40.348Z,18.27
2023-02-13T08:43:08.483Z,17.93
2023-02-13T08:45:36.906Z,18.80
2023-02-13T08:48:05.109Z,19.93
2023-02-13T08:50:34.629Z,18.47
2023-02-13T08:53:03.259Z,19.23
2023-02-13T08:55:31.529Z,18.30
2023-02-13T08:58:02.724Z,18.00
2023-02-13T09:00:30.988Z,19.23
2023-02-13T09:03:01.633Z,19.40
2023-02-13T09:05:31.585Z,20.00
2023-02-13T09:08:01.034Z,19.30
2023-02-13T09:10:28.678Z,19.80
2023-02-13T09:12:56.324Z,18.67
2023-02-13T09:15:25.314Z,18.07
2023-02-13T09:17:52.962Z,17.80
2023-02-13T09:20:20.828Z,18.70
2023-02-13T09:22:48.600Z,16.70
2023-02-13T09:25:16.440Z,18.07
2023-02-13T09:27:44.199Z,17.87
2023-02-13T09:30:14.696Z,17.13
2023-02-13T09:32:43.932Z,16.50
2023-02-13T09:35:11.581Z,16.97
2023-02-13T09:37:39.256Z,17.83
2023-02-13T09:40:08.542Z,17.83
2023-02-13T09:42:37.837Z,16.17
2023-02-13T09:45:09.293Z,15.37
2023-02-13T09:47:40.854Z,16.17
2023-02-13T09:50:15.798Z,13.50
2023-02-13T09:52:46.549Z,14.52
2023-02-13T09:55:19.473Z,14.20
2023-02-13T09:57:54.358Z,14.35
2023-02-13T10:00:25.841Z,13.60
2023-02-13T10:03:19.173Z,13.52
2023-02-13T10:06:00.157Z,13.90
2023-02-13T10:08:54.504Z,14.30
2023-02-13T10:11:35.895Z,13.55
2023-02-13T10:14:12.796Z,12.70
2023-02-13T10:16:44.415Z,13.35
2023-02-13T10:19:20.349Z,11.85
2023-02-13T10:21:54.615Z,10.85
2023-02-13T10:24:32.152Z,11.93
2023-02-13T10:27:02.159Z,12.10
2023-02-13T10:30:01.735Z,12.02
2023-02-13T10:32:36.912Z,12.02
2023-02-13T10:35:17.143Z,12.65
2023-02-13T10:37:51.034Z,10.45
2023-02-13T10:40:20.201Z,11.43
2023-02-13T10:42:57.842Z,12.38
2023-02-13T10:45:43.415Z,12.02
2023-02-13T10:48:27.387Z,11.45
2023-02-13T10:51:03.851Z,12.10
2023-02-13T10:53:50.092Z,11.38
2023-02-13T10:56:28.388Z,12.10
2023-02-13T10:59:08.068Z,11.80
2023-02-13T11:01:43.842Z,12.20
2023-02-13T11:04:15.069Z,11.57
2023-02-13T11:06:44.869Z,12.02
2023-02-13T11:09:14.159Z,12.27
2023-02-13T11:11:43.866Z,11.85
2023-02-13T11:14:15.027Z,11.60
2023-02-13T11:16:50.194Z,12.18
2023-02-13T11:19:21.050Z,13.27
2023-02-13T11:21:54.028Z,13.00
2023-02-13T11:24:25.440Z,11.75
2023-02-13T11:26:55.948Z,11.18
2023-02-13T11:29:27.631Z,12.05
2023-02-13T11:32:25.520Z,11.82
2023-02-13T11:34:54.804Z,10.18
2023-02-13T11:37:25.850Z,10.95
2023-02-13T11:39:56.818Z,9.15
2023-02-13T11:42:30.493Z,8.98
2023-02-13T11:45:01.998Z,10.20
2023-02-13T11:47:48.089Z,9.48
2023-02-13T11:50:25.938Z,8.95
2023-02-13T11:52:59.647Z,9.13
2023-02-13T11:55:40.001Z,10.40
2023-02-13T11:58:25.117Z,10.88
2023-02-13T12:01:10.147Z,10.35
2023-02-13T12:03:38.848Z,10.23
2023-02-13T12:06:13.772Z,11.13
2023-02-13T12:08:43.154Z,10.35
2023-02-13T12:11:25.750Z,10.75
2023-02-13T12:13:54.009Z,10.25
2023-02-13T12:16:31.001Z,10.45
2023-02-13T12:19:01.781Z,10.43
2023-02-13T12:21:43.966Z,10.77
2023-02-13T12:24:25.891Z,10.38
2023-02-13T12:27:00.944Z,9.70
2023-02-13T12:29:54.907Z,11.18
2023-02-13T12:32:33.281Z,10.48
2023-02-13T12:35:19.387Z,11.02
2023-02-13T12:38:09.848Z,10.38
2023-02-13T12:41:03.150Z,9.82
2023-02-13T12:44:06.439Z,8.75
2023-02-13T12:46:41.715Z,9.05
2023-02-13T12:49:22.552Z,9.35
2023-02-13T12:52:00.161Z,9.80
2023-02-13T12:54:42.859Z,10.30
2023-02-13T12:57:29.583Z,9.47
2023-02-13T13:00:23.363Z,10.57
2023-02-13T13:03:22.884Z,10.30
2023-02-13T13:06:11.819Z,10.70
2023-02-13T13:08:56.369Z,9.80
2023-02-13T13:11:38.907Z,9.80
2023-02-13T13:14:13.197Z,9.63
2023-02-13T13:16:51.536Z,9.48
2023-02-13T13:19:28.974Z,9.65
2023-02-13T13:22:01.673Z,10.27
2023-02-13T13:24:48.402Z,9.32
2023-02-13T13:27:21.537Z,10.63
2023-02-13T13:29:56.282Z,9.55
2023-02-13T13:32:27.274Z,8.75
2023-02-13T13:34:55.949Z,8.15
2023-02-13T13:37:32.637Z,8.68
2023-02-13T13:40:07.459Z,10.10
2023-02-13T13:42:41.342Z,12.73
2023-02-13T13:45:31.547Z,11.07
2023-02-13T13:48:18.047Z,9.00
2023-02-13T13:50:46.659Z,9.63
2023-02-13T13:53:19.097Z,8.70
2023-02-13T13:56:09.312Z,8.63
2023-02-13T13:58:43.238Z,9.87
2023-02-13T14:01:23.365Z,10.13
2023-02-13T14:03:54.614Z,10.37
2023-02-13T14:06:23.837Z,9.37
2023-02-13T14:09:37.957Z,8.30
2023-02-13T14:12:39.514Z,9.33
2023-02-13T14:15:46.236Z,9.33
2023-02-13T14:18:22.039Z,10.27
2023-02-13T14:20:56.909Z,9.57
2023-02-13T14:23:33.882Z,9.70
2023-02-13T14:26:13.037Z,9.20
2023-02-13T14:28:43.147Z,9.13
2023-02-13T14:31:22.455Z,9.17
2023-02-13T14:33:57.239Z,10.10
2023-02-13T14:36:32.276Z,10.07
2023-02-13T14:39:02.634Z,9.83
2023-02-13T14:41:43.343Z,9.70
2023-02-13T14:44:20.098Z,8.77
2023-02-13T14:46:50.442Z,10.10
2023-02-13T14:49:20.969Z,9.30
2023-02-13T14:51:52.444Z,7.97
2023-02-13T14:54:28.601Z,8.67
2023-02-13T14:57:06.025Z,9.70
2023-02-13T14:59:40.331Z,9.87
2023-02-13T15:02:19.931Z,8.37
2023-02-13T15:04:50.725Z,9.60
2023-02-13T15:07:23.960Z,11.37
2023-02-13T15:09:54.242Z,9.90
2023-02-13T15:12:30.358Z,11.13
2023-02-13T15:14:58.320Z,10.77
2023-02-13T15:17:30.052Z,10.40
2023-02-13T15:20:04.776Z,10.30
2023-02-13T15:22:36.628Z,10.57
2023-02-13T15:25:07.810Z,11.97
2023-02-13T15:27:41.658Z,10.47
2023-02-13T15:30:20.835Z,10.37
2023-02-13T15:32:56.453Z,10.70
2023-02-13T15:35:26.532Z,11.60
2023-02-13T15:37:55.891Z,10.53
2023-02-13T15:40:26.964Z,10.73
2023-02-13T15:42:55.573Z,10.23
2023-02-13T15:45:26.105Z,11.27
2023-02-13T15:47:56.000Z,11.23
2023-02-13T15:50:34.134Z,10.97
2023-02-13T15:53:05.875Z,10.77
2023-02-13T15:55:36.600Z,10.57
2023-02-13T15:58:05.019Z,9.53
2023-02-13T16:00:35.699Z,10.10
2023-02-13T16:03:06.936Z,9.80
2023-02-13T16:05:41.336Z,11.07
2023-02-13T16:08:31.302Z,11.10
2023-02-13T16:11:30.894Z,10.40
2023-02-13T16:14:17.955Z,9.80
2023-02-13T16:16:52.331Z,10.87
2023-02-13T16:19:38.034Z,10.80
2023-02-13T16:22:17.021Z,10.23
2023-02-13T16:24:51.832Z,10.57
2023-02-13T16:27:22.587Z,9.83
2023-02-13T16:29:55.637Z,12.47
2023-02-13T16:32:29.356Z,13.47
2023-02-13T16:34:58.207Z,14.20
2023-02-13T16:37:33.144Z,16.40
2023-02-13T16:40:34.406Z,15.43
2023-02-13T16:43:38.038Z,14.60
2023-02-13T16:46:34.171Z,14.93
2023-02-13T16:49:15.480Z,15.13
2023-02-13T16:51:45.704Z,14.57
2023-02-13T16:54:21.098Z,14.97
2023-02-13T16:56:51.301Z,16.13
2023-02-13T16:59:29.528Z,14.97
2023-02-13T17:02:18.090Z,15.03
2023-02-13T17:04:48.042Z,14.33
2023-02-13T17:07:19.501Z,15.13
2023-02-13T17:09:54.298Z,16.30
2023-02-13T17:12:22.443Z,15.27
2023-02-13T17:14:51.537Z,16.73
2023-02-13T17:17:20.835Z,16.30
2023-02-13T17:19:49.393Z,17.47
2023-02-13T17:22:34.162Z,16.30
2023-02-13T17:25:03.677Z,17.57
2023-02-13T17:27:31.673Z,17.63
2023-02-13T17:30:00.752Z,17.43
2023-02-13T17:32:29.094Z,16.13
2023-02-13T17:34:56.879Z,17.83
2023-02-13T17:37:26.163Z,18.93
2023-02-13T17:39:55.011Z,18.13
2023-02-13T17:42:25.679Z,17.27
2023-02-13T17:44:54.098Z,18.77
2023-02-13T17:47:23.793Z,18.00
2023-02-13T17:49:53.561Z,17.00
2023-02-13T17:52:27.614Z,18.63
2023-02-13T17:54:55.528Z,16.73
2023-02-13T17:57:23.228Z,18.67
2023-02-13T17:59:51.034Z,19.57
2023-02-13T18:02:20.310Z,18.63
2023-02-13T18:04:50.842Z,19.60
2023-02-13T18:07:21.021Z,19.67
2023-02-13T18:09:49.184Z,18.43
2023-02-13T18:12:18.693Z,19.10
2023-02-13T18:14:46.467Z,19.83
2023-02-13T18:17:14.407Z,19.33
2023-02-13T18:19:42.382Z,18.67
2023-02-13T18:22:11.924Z,19.53
2023-02-13T18:24:43.097Z,19.23
2023-02-13T18:27:12.615Z,19.63
2023-02-13T18:29:40.755Z,19.83
2023-02-13T18:32:10.768Z,21.23
2023-02-13T18:34:39.160Z,20.20
2023-02-13T18:37:08.241Z,21.43
2023-02-13T18:39:37.238Z,21.03
2023-02-13T18:42:05.260Z,21.40
2023-02-13T18:44:33.427Z,22.10
2023-02-13T18:47:01.746Z,23.87
2023-02-13T18:49:29.370Z,24.17
2023-02-13T18:51:57.069Z,25.10
2023-02-13T18:54:24.777Z,25.03
2023-02-13T18:56:53.768Z,24.27
2023-02-13T18:59:23.023Z,24.27
2023-02-13T19:01:50.801Z,24.00
2023-02-13T19:04:18.557Z,23.97
2023-02-13T19:06:46.286Z,24.00
2023-02-13T19:09:14.217Z,22.10
2023-02-13T19:11:42.830Z,23.53
2023-02-13T19:14:15.002Z,23.60
2023-02-13T19:16:43.151Z,23.40
2023-02-13T19:19:11.400Z,23.60
2023-02-13T19:21:40.082Z,23.27
2023-02-13T19:24:09.972Z,24.03
2023-02-13T19:26:38.288Z,23.03
2023-02-13T19:29:05.915Z,23.20
2023-02-13T19:31:35.435Z,22.10
2023-02-13T19:34:05.581Z,23.00
2023-02-13T19:36:33.512Z,22.73
2023-02-13T19:39:03.374Z,22.30
2023-02-13T19:41:31.234Z,23.03
2023-02-13T19:44:00.137Z,22.97
2023-02-13T19:46:29.609Z,24.50
2023-02-13T19:48:58.896Z,22.90
2023-02-13T19:51:28.511Z,21.97
2023-02-13T19:53:57.534Z,23.00
2023-02-13T19:56:27.012Z,22.10
2023-02-13T19:58:55.484Z,21.93
2023-02-13T20:01:25.465Z,25.97
2023-02-13T20:03:54.284Z,29.57
2023-02-13T20:06:25.513Z,23.37
2023-02-13T20:08:53.884Z,26.23
2023-02-13T20:11:23.019Z,27.03
2023-02-13T20:13:56.508Z,28.17
2023-02-13T20:16:24.766Z,29.77
2023-02-13T20:18:52.570Z,27.30
2023-02-13T20:21:20.908Z,28.27
2023-02-13T20:23:51.876Z,27.97
2023-02-13T20:26:20.454Z,24.93
2023-02-13T20:28:48.881Z,26.27
2023-02-13T20:31:18.285Z,23.57
2023-02-13T20:33:47.148Z,24.40
2023-02-13T20:36:16.624Z,24.37
2023-02-13T20:38:44.447Z,23.13
2023-02-13T20:41:15.969Z,21.23
2023-02-13T20:43:43.747Z,20.80
2023-02-13T20:46:12.980Z,20.33
2023-02-13T20:48:41.816Z,19.47
2023-02-13T20:51:11.938Z,19.67
2023-02-13T20:53:39.870Z,20.53
2023-02-13T20:56:10.620Z,20.73
2023-02-13T20:58:41.259Z,23.93
2023-02-13T21:01:12.851Z,23.10
2023-02-13T21:03:41.205Z,22.57
2023-02-13T21:06:10.685Z,23.03
2023-02-13T21:08:38.979Z,23.20
2023-02-13T21:11:08.207Z,23.20
2023-02-13T21:13:36.475Z,24.30
2023-02-13T21:16:07.744Z,23.50
2023-02-13T21:18:35.478Z,23.40
2023-02-13T21:21:03.506Z,23.83
2023-02-13T21:23:31.612Z,22.90
2023-02-13T21:26:02.873Z,24.13
2023-02-13T21:28:30.572Z,21.10
2023-02-13T21:30:58.584Z,21.73
2023-02-13T21:33:27.803Z,24.97
2023-02-13T21:36:01.638Z,23.23
2023-02-13T21:38:29.350Z,21.00
2023-02-13T21:40:58.006Z,21.53
2023-02-13T21:43:25.891Z,20.80
2023-02-13T21:45:53.520Z,18.30
2023-02-13T21:48:21.237Z,18.60
2023-02-13T21:50:50.302Z,20.23
2023-02-13T21:53:17.989Z,18.00
2023-02-13T21:55:45.597Z,18.47
2023-02-13T21:58:13.328Z,20.23
2023-02-13T22:00:41.007Z,18.30
2023-02-13T22:03:08.764Z,18.80
2023-02-13T22:05:36.586Z,18.03
2023-02-13T22:08:11.758Z,18.87
2023-02-13T22:10:39.408Z,19.13
2023-02-13T22:13:07.237Z,17.73
2023-02-13T22:15:34.885Z,19.67
2023-02-13T22:18:02.542Z,19.43
2023-02-13T22:20:30.174Z,19.53
2023-02-13T22:22:57.771Z,19.63
2023-02-13T22:25:26.873Z,18.37
2023-02-13T22:27:54.573Z,19.17
2023-02-13T22:30:22.314Z,18.97
2023-02-13T22:32:50.022Z,18.53
2023-02-13T22:35:17.754Z,16.87
2023-02-13T22:37:45.392Z,17.23
2023-02-13T22:40:13.674Z,17.90
2023-02-13T22:42:42.629Z,17.13
2023-02-13T22:45:10.756Z,18.53
2023-02-13T22:47:38.407Z,17.40
2023-02-13T22:50:07.390Z,17.60
2023-02-13T22:52:35.053Z,17.33
2023-02-13T22:55:02.706Z,16.90
2023-02-13T22:57:30.382Z,16.97
2023-02-13T22:59:59.353Z,15.80
2023-02-13T23:02:27.452Z,15.40
2023-02-13T23:04:55.089Z,15.57
2023-02-13T23:07:22.756Z,15.67
2023-02-13T23:09:50.623Z,16.50
2023-02-13T23:12:36.157Z,16.77
2023-02-13T23:15:06.593Z,15.93
2023-02-13T23:17:51.919Z,14.33
2023-02-13T23:20:21.159Z,14.23
2023-02-13T23:22:49.074Z,13.90
2023-02-13T23:25:16.857Z,14.27
2023-02-13T23:27:44.748Z,13.57
2023-02-13T23:30:16.425Z,13.23
2023-02-13T23:32:44.192Z,12.60
2023-02-13T23:35:12.112Z,12.53
2023-02-13T23:37:39.789Z,12.50
2023-02-13T23:40:09.530Z,12.20
2023-02-13T23:42:37.238Z,11.50
2023-02-13T23:45:05.693Z,11.70
2023-02-13T23:47:34.685Z,12.27
2023-02-13T23:50:02.442Z,12.80
2023-02-13T23:52:30.200Z,12.97
2023-02-13T23:54:57.921Z,12.37
2023-02-13T23:57:25.637Z,13.20
2023-02-13T23:59:53.389Z,12.03
